Almonte, Canada
Current Conditions -  °F | °C
As of 6:25 PM on Thursday 18 Dec 2014 (Local Time) from CYOW Reporting Station
Light Snow Light Snow  
Wind Chill: 12°   Ceiling: 1700
Heat Index: 25°   Visibility: 15mi
Dew Point: 21°   Wind: 15mph
Humidity: 86%   Direction: 300°WNW
Pressure: 30"   Gusts: NA
Location:  45.22°N, 76.2°W
Report Text: CYOW 182325Z 30013KT 15SM -SN OVC017 M04/M06 A3000 RMK SC8 SN VRY LGT SLP165
Loading
Personal Weather Stations






























Interactive Weather Map New forecast layout! Learn more

10-Day Weather Forecast

Advertisements
Track Severe Weather on mobile